Time;durP1;ratioP1;P1;durP2;ratioP2;P2;SDS_P1;SDS_P2;PMS_P1;PMS_P2;Temp;Humidity;BMP_temperature;BMP_pressure;BME280_temperature;BME280_humidity;BME280_pressure;Samples;Min_cycle;Max_cycle;Signal;HPM_P1;HPM_P2
2023/08/03 00:01:58;;;;;;;0.75;0.20;;;16.10;99.90;;;;;;5019436;28;20056;-87
2023/08/03 00:04:23;;;;;;;2.90;0.13;;;16.10;99.90;;;;;;5007984;28;20049;-89
2023/08/03 00:06:49;;;;;;;0.77;0.17;;;16.10;99.90;;;;;;4991962;28;20509;-83
2023/08/03 00:09:14;;;;;;;0.50;0.10;;;16.20;99.90;;;;;;4989981;28;20034;-89
2023/08/03 00:11:40;;;;;;;0.57;0.10;;;16.10;99.90;;;;;;5010577;28;20079;-86
2023/08/03 00:14:06;;;;;;;1.75;0.15;;;16.10;99.90;;;;;;4995364;28;20437;-89
2023/08/03 00:16:31;;;;;;;0.88;0.10;;;16.10;99.90;;;;;;5026256;28;20047;-89
2023/08/03 00:18:57;;;;;;;1.52;0.10;;;16.10;99.90;;;;;;5010806;28;20109;-84
2023/08/03 00:21:23;;;;;;;0.50;0.10;;;16.10;99.90;;;;;;4993655;28;20029;-88
2023/08/03 00:23:48;;;;;;;1.70;0.10;;;16.10;99.90;;;;;;5007387;28;20021;-84
2023/08/03 00:26:14;;;;;;;0.68;0.10;;;16.10;99.90;;;;;;5024470;28;20028;-88
2023/08/03 00:28:40;;;;;;;1.08;0.17;;;16.10;99.90;;;;;;4992794;28;20037;-88
2023/08/03 00:31:05;;;;;;;0.57;0.10;;;16.10;99.90;;;;;;5018136;28;20025;-84
2023/08/03 00:33:31;;;;;;;1.30;0.10;;;16.10;99.90;;;;;;5005005;28;20540;-88
2023/08/03 00:35:57;;;;;;;1.85;0.20;;;16.10;99.90;;;;;;5005778;28;20033;-85
2023/08/03 00:38:22;;;;;;;2.05;0.10;;;16.10;99.90;;;;;;4986915;28;20109;-86
2023/08/03 00:40:50;;;;;;;1.48;0.10;;;16.10;99.90;;;;;;5023481;28;20713;-86
2023/08/03 00:43:16;;;;;;;0.88;0.10;;;16.10;99.90;;;;;;4988243;28;20167;-85
2023/08/03 00:45:42;;;;;;;0.60;0.10;;;16.20;99.90;;;;;;5006906;28;20109;-86
2023/08/03 00:48:08;;;;;;;1.52;0.30;;;16.20;99.90;;;;;;5006389;28;20058;-86
2023/08/03 00:50:34;;;;;;;0.40;0.20;;;16.10;99.90;;;;;;5007677;28;20038;-90
2023/08/03 00:52:59;;;;;;;0.68;0.10;;;16.10;99.90;;;;;;5006852;28;20033;-86
2023/08/03 00:55:25;;;;;;;0.80;0.10;;;16.10;99.90;;;;;;5023927;28;20026;-86
2023/08/03 00:57:51;;;;;;;1.02;0.20;;;16.10;99.90;;;;;;5003761;28;20033;-88
2023/08/03 01:00:17;;;;;;;1.27;0.20;;;16.10;99.90;;;;;;5005964;28;20152;-87
2023/08/03 01:02:42;;;;;;;1.52;0.30;;;16.20;99.90;;;;;;5007836;28;20033;-87
2023/08/03 01:05:08;;;;;;;2.67;0.30;;;16.20;99.90;;;;;;4994373;28;20025;-84
2023/08/03 01:07:34;;;;;;;1.50;0.40;;;16.20;99.90;;;;;;5023578;28;20631;-84
2023/08/03 01:10:00;;;;;;;2.30;0.40;;;16.20;99.90;;;;;;4993318;28;20042;-87
2023/08/03 01:12:27;;;;;;;1.60;0.50;;;16.20;99.90;;;;;;5024700;28;20025;-88
2023/08/03 01:14:52;;;;;;;2.15;0.50;;;16.20;99.90;;;;;;4996915;28;20509;-89
2023/08/03 01:17:19;;;;;;;2.03;0.50;;;16.20;99.90;;;;;;5004823;28;20049;-86
2023/08/03 01:19:45;;;;;;;3.10;0.40;;;16.20;99.90;;;;;;5009228;28;20400;-85
2023/08/03 01:22:13;;;;;;;4.40;0.40;;;16.20;99.90;;;;;;5009893;28;20018;-84
2023/08/03 01:24:39;;;;;;;3.72;0.50;;;16.20;99.90;;;;;;5002652;28;20033;-86
2023/08/03 01:27:05;;;;;;;2.90;0.70;;;16.20;99.90;;;;;;4988487;28;20026;-82
2023/08/03 01:29:31;;;;;;;4.22;0.50;;;16.20;99.90;;;;;;5025474;28;20141;-87
2023/08/03 01:31:59;;;;;;;3.22;0.50;;;16.20;99.90;;;;;;5010904;28;20128;-85
2023/08/03 01:34:26;;;;;;;1.42;0.50;;;16.30;99.90;;;;;;5010263;28;20454;-85
2023/08/03 01:36:53;;;;;;;2.60;0.50;;;16.20;99.90;;;;;;5009113;28;20056;-85
2023/08/03 01:39:20;;;;;;;3.72;0.60;;;16.30;99.90;;;;;;5010762;28;20025;-80
2023/08/03 01:41:46;;;;;;;2.55;0.75;;;16.30;99.90;;;;;;5011403;28;20039;-82
2023/08/03 01:44:29;;;;;;;4.13;0.65;;;16.30;99.90;;;;;;5022942;28;20022;-87
2023/08/03 01:46:56;;;;;;;4.30;0.95;;;16.30;99.90;;;;;;5020748;28;20056;-85
2023/08/03 01:49:23;;;;;;;5.13;0.63;;;16.40;99.90;;;;;;5009341;28;20069;-86
2023/08/03 01:51:50;;;;;;;3.05;0.60;;;16.30;99.90;;;;;;5006124;28;20021;-88
2023/08/03 01:54:16;;;;;;;3.05;0.70;;;16.40;99.90;;;;;;5007859;28;20030;-82
2023/08/03 01:56:42;;;;;;;3.70;0.73;;;16.40;99.90;;;;;;5010253;28;20091;-89
2023/08/03 01:59:08;;;;;;;2.95;0.70;;;16.40;99.90;;;;;;4992896;28;20033;-87
2023/08/03 02:01:34;;;;;;;2.75;0.60;;;16.40;99.90;;;;;;5022891;28;20114;-90
2023/08/03 02:03:59;;;;;;;5.03;0.60;;;16.40;99.90;;;;;;5011239;28;20136;-86
2023/08/03 02:06:26;;;;;;;4.47;0.70;;;16.40;99.90;;;;;;4994584;28;20470;-86
2023/08/03 02:08:51;;;;;;;5.10;0.93;;;16.40;99.90;;;;;;5025059;28;20049;-85
2023/08/03 02:11:17;;;;;;;4.97;0.70;;;16.40;99.90;;;;;;5007884;28;20021;-82
2023/08/03 02:13:43;;;;;;;6.13;1.13;;;16.50;99.90;;;;;;5009801;28;20180;-85
2023/08/03 02:16:10;;;;;;;4.10;1.10;;;16.50;99.90;;;;;;5011923;28;20036;-81
2023/08/03 02:18:38;;;;;;;4.45;0.80;;;16.50;99.90;;;;;;5025163;28;20036;-87
2023/08/03 02:21:04;;;;;;;3.97;0.50;;;16.40;99.90;;;;;;5007286;28;20117;-84
2023/08/03 02:23:30;;;;;;;4.35;0.60;;;16.40;99.90;;;;;;5008143;28;20025;-85
2023/08/03 02:25:56;;;;;;;2.45;0.60;;;16.40;99.90;;;;;;4993657;28;20095;-87
2023/08/03 02:28:22;;;;;;;4.05;0.70;;;16.40;99.90;;;;;;5027446;28;20064;-88
2023/08/03 02:30:47;;;;;;;4.18;0.93;;;16.40;99.90;;;;;;4992322;28;20033;-86
2023/08/03 02:33:14;;;;;;;4.80;0.73;;;16.40;99.90;;;;;;5026018;28;20481;-88
2023/08/03 02:35:40;;;;;;;2.45;0.70;;;16.40;99.90;;;;;;4999521;28;20076;-85
2023/08/03 02:38:06;;;;;;;2.50;0.85;;;16.40;99.90;;;;;;4994021;28;20116;-86
2023/08/03 02:40:32;;;;;;;4.50;0.80;;;16.40;99.90;;;;;;5012984;28;20033;-85
2023/08/03 02:42:58;;;;;;;7.20;1.00;;;16.40;99.90;;;;;;4993859;28;20025;-87
2023/08/03 02:45:25;;;;;;;4.00;0.70;;;16.40;99.90;;;;;;4990771;28;20798;-88
2023/08/03 02:47:52;;;;;;;3.35;0.90;;;16.40;99.90;;;;;;5016898;28;20065;-86
2023/08/03 02:50:21;;;;;;;3.53;0.90;;;16.40;99.90;;;;;;5012355;28;20084;-84
2023/08/03 02:52:49;;;;;;;1.63;0.50;;;16.40;99.90;;;;;;5007166;28;20026;-86
2023/08/03 02:55:16;;;;;;;3.80;0.80;;;16.40;99.90;;;;;;5008856;28;20386;-82
2023/08/03 02:57:44;;;;;;;3.80;1.35;;;16.40;99.90;;;;;;4990236;28;20037;-86
2023/08/03 03:00:12;;;;;;;4.70;2.80;;;16.40;99.90;;;;;;5026145;28;20032;-84
2023/08/03 03:02:38;;;;;;;3.08;1.45;;;16.40;99.90;;;;;;4995790;28;20029;-86
2023/08/03 03:05:05;;;;;;;3.67;1.75;;;16.40;99.90;;;;;;5009010;28;20025;-82
2023/08/03 03:07:34;;;;;;;2.40;1.00;;;16.40;99.90;;;;;;5008045;28;20029;-87
2023/08/03 03:10:02;;;;;;;2.35;1.13;;;16.40;99.90;;;;;;5007515;28;21028;-85
2023/08/03 03:12:29;;;;;;;2.20;1.05;;;16.40;99.90;;;;;;4995629;28;20044;-81
2023/08/03 03:14:54;;;;;;;3.03;1.50;;;16.40;99.90;;;;;;5018788;28;20053;-86
2023/08/03 03:17:21;;;;;;;1.90;1.15;;;16.40;99.90;;;;;;5009451;28;20099;-88
2023/08/03 03:19:49;;;;;;;1.67;0.82;;;16.40;99.90;;;;;;5015706;28;20033;-86
2023/08/03 03:22:15;;;;;;;4.00;1.02;;;16.40;99.90;;;;;;5025856;28;20022;-86
2023/08/03 03:24:41;;;;;;;2.55;0.57;;;16.30;99.90;;;;;;4990294;28;20402;-85
2023/08/03 03:27:06;;;;;;;2.03;0.63;;;16.30;99.90;;;;;;5012220;28;20029;-85
2023/08/03 03:29:39;;;;;;;2.15;0.70;;;16.30;99.90;;;;;;5011683;28;20064;-86
2023/08/03 03:32:06;;;;;;;2.00;0.50;;;16.30;99.90;;;;;;5012288;28;20146;-86
2023/08/03 03:34:33;;;;;;;2.10;0.50;;;16.30;99.90;;;;;;4993656;28;20473;-86
2023/08/03 03:36:59;;;;;;;1.95;0.50;;;16.30;99.90;;;;;;4993548;28;20026;-85
2023/08/03 03:39:24;;;;;;;4.90;0.73;;;16.30;99.90;;;;;;5007371;28;20052;-88
2023/08/03 03:41:51;;;;;;;1.83;0.50;;;16.30;99.90;;;;;;5017311;28;20528;-89
2023/08/03 03:44:18;;;;;;;1.80;0.43;;;16.20;99.90;;;;;;4989647;28;20025;-86
2023/08/03 03:46:44;;;;;;;1.23;0.38;;;16.20;99.90;;;;;;5006567;28;20079;-89
2023/08/03 03:49:09;;;;;;;5.65;0.98;;;16.20;99.90;;;;;;5009960;28;20116;-86
2023/08/03 03:51:36;;;;;;;3.95;0.95;;;16.20;99.90;;;;;;5020214;28;20052;-90
2023/08/03 03:54:02;;;;;;;2.42;0.70;;;16.10;99.90;;;;;;5008572;28;20483;-85
2023/08/03 03:56:27;;;;;;;2.35;0.40;;;16.10;99.90;;;;;;5011775;28;20465;-89
2023/08/03 03:58:53;;;;;;;1.38;0.20;;;16.00;99.90;;;;;;5005913;28;20113;-86
2023/08/03 04:01:19;;;;;;;1.15;0.20;;;16.00;99.90;;;;;;5009272;28;20500;-88
2023/08/03 04:03:49;;;;;;;;;;;16.10;99.90;;;;;;4994160;28;20050;-87
2023/08/03 04:06:15;;;;;;;0.60;0.13;;;16.00;99.90;;;;;;5016644;28;19916;-87
2023/08/03 04:08:41;;;;;;;2.40;0.30;;;16.00;99.90;;;;;;5011040;28;20375;-86
2023/08/03 04:11:07;;;;;;;2.03;0.38;;;16.00;99.90;;;;;;5006692;28;20112;-82
2023/08/03 04:13:34;;;;;;;2.63;0.70;;;16.10;99.90;;;;;;5024483;28;20034;-85
2023/08/03 04:15:59;;;;;;;4.22;0.68;;;16.10;99.90;;;;;;4992707;28;20022;-85
2023/08/03 04:18:27;;;;;;;2.55;0.75;;;16.10;99.90;;;;;;5016378;28;20448;-84
2023/08/03 04:20:54;;;;;;;2.83;0.60;;;16.10;99.90;;;;;;5004948;28;20501;-81
2023/08/03 04:23:20;;;;;;;1.58;0.60;;;16.10;99.90;;;;;;4991288;28;20026;-85
2023/08/03 04:25:46;;;;;;;4.15;0.90;;;16.20;99.90;;;;;;4991254;28;20053;-83
2023/08/03 04:28:16;;;;;;;2.45;0.60;;;16.20;99.90;;;;;;5017722;28;20044;-84
2023/08/03 04:30:42;;;;;;;2.13;0.55;;;16.20;99.90;;;;;;5022395;28;20494;-84
2023/08/03 04:33:07;;;;;;;2.70;0.60;;;16.20;99.90;;;;;;5024254;28;20017;-84
2023/08/03 04:35:37;;;;;;;5.65;0.70;;;16.10;99.90;;;;;;5007569;28;20461;-84
2023/08/03 04:38:08;;;;;;;4.40;0.82;;;16.20;99.90;;;;;;5007959;28;20025;-81
2023/08/03 04:40:36;;;;;;;3.42;0.52;;;16.20;99.90;;;;;;4994120;28;20026;-87
2023/08/03 04:43:02;;;;;;;2.97;0.68;;;16.20;99.90;;;;;;5009347;28;20034;-84
2023/08/03 04:45:28;;;;;;;2.67;0.68;;;16.20;99.90;;;;;;4987327;28;20132;-83
2023/08/03 04:47:56;;;;;;;2.33;0.43;;;16.30;99.90;;;;;;5018358;28;20040;-88
2023/08/03 04:50:22;;;;;;;3.30;0.40;;;16.20;99.90;;;;;;5014759;28;20209;-84
2023/08/03 04:52:50;;;;;;;3.78;0.50;;;16.20;99.90;;;;;;4991413;28;20113;-83
2023/08/03 04:55:18;;;;;;;6.20;0.65;;;16.20;99.90;;;;;;5006240;28;20083;-84
2023/08/03 04:57:44;;;;;;;3.72;0.40;;;16.20;99.90;;;;;;5022773;28;20026;-84
2023/08/03 05:00:11;;;;;;;4.43;0.68;;;16.20;99.90;;;;;;5005871;28;20381;-85
2023/08/03 05:02:36;;;;;;;4.47;0.52;;;16.20;99.90;;;;;;4988488;28;20172;-87
2023/08/03 05:05:03;;;;;;;4.25;0.60;;;16.30;99.90;;;;;;4998239;28;20116;-83
2023/08/03 05:07:29;;;;;;;7.80;0.60;;;16.30;99.90;;;;;;5005888;28;20025;-85
2023/08/03 05:09:54;;;;;;;3.15;0.40;;;16.30;99.90;;;;;;4987479;28;20045;-84
2023/08/03 05:12:20;;;;;;;4.50;0.43;;;16.30;99.90;;;;;;4991026;28;20385;-83
2023/08/03 05:14:46;;;;;;;4.68;0.45;;;16.30;99.90;;;;;;4959887;28;20048;-85
2023/08/03 05:17:12;;;;;;;3.72;0.57;;;16.30;99.90;;;;;;4990235;28;20037;-82
2023/08/03 05:19:37;;;;;;;2.25;0.40;;;16.30;99.90;;;;;;5005253;28;20037;-80
2023/08/03 05:22:04;;;;;;;3.72;0.40;;;16.30;99.90;;;;;;5012598;28;20292;-86
2023/08/03 05:24:30;;;;;;;3.33;0.50;;;16.30;99.90;;;;;;5008947;28;20566;-82
2023/08/03 05:26:55;;;;;;;2.97;0.40;;;16.30;99.90;;;;;;5004022;28;20490;-83
2023/08/03 05:29:21;;;;;;;2.33;0.40;;;16.30;99.90;;;;;;4990036;28;20120;-85
2023/08/03 05:31:48;;;;;;;4.18;0.40;;;16.30;99.90;;;;;;5022992;28;20021;-82
2023/08/03 05:34:14;;;;;;;2.97;0.40;;;16.30;99.90;;;;;;5024411;28;20068;-87
2023/08/03 05:36:40;;;;;;;2.47;0.30;;;16.20;99.90;;;;;;4988925;28;20091;-84
2023/08/03 05:39:08;;;;;;;2.55;0.35;;;16.20;99.90;;;;;;5013768;28;20381;-82
2023/08/03 05:41:34;;;;;;;2.88;0.30;;;16.20;99.90;;;;;;5012766;28;20628;-82
2023/08/03 05:44:00;;;;;;;2.38;0.30;;;16.20;99.90;;;;;;5016049;28;20295;-87
2023/08/03 05:46:31;;;;;;;4.82;0.32;;;16.20;99.90;;;;;;5025486;28;20100;-84
2023/08/03 05:48:57;;;;;;;3.22;0.25;;;16.10;99.90;;;;;;4993574;28;20095;-85
2023/08/03 05:51:27;;;;;;;2.92;0.35;;;16.20;99.90;;;;;;4995351;28;20034;-84
2023/08/03 05:53:55;;;;;;;3.92;0.40;;;16.20;99.90;;;;;;5007858;28;20092;-84
2023/08/03 05:56:22;;;;;;;2.28;0.30;;;16.20;99.90;;;;;;5006826;28;20030;-82
2023/08/03 05:58:49;;;;;;;2.65;0.30;;;16.20;99.90;;;;;;5007538;28;20040;-86
2023/08/03 06:01:19;;;;;;;1.67;0.20;;;16.30;99.90;;;;;;5012578;28;20474;-84
2023/08/03 06:03:45;;;;;;;5.25;0.50;;;16.30;99.90;;;;;;5023117;28;20045;-87
2023/08/03 06:06:15;;;;;;;2.58;0.30;;;16.20;99.90;;;;;;5008856;28;20100;-84
2023/08/03 06:08:47;;;;;;;;;;;16.30;99.90;;;;;;5000279;28;20120;-83
2023/08/03 06:11:16;;;;;;;5.10;0.47;;;16.30;99.90;;;;;;5001202;28;19962;-86
2023/08/03 06:13:42;;;;;;;3.65;0.40;;;16.30;99.90;;;;;;5019896;28;20034;-83
2023/08/03 06:16:10;;;;;;;2.60;0.35;;;16.30;99.90;;;;;;4984754;28;20500;-87
2023/08/03 06:18:56;;;;;;;5.35;0.30;;;16.30;99.90;;;;;;5019249;28;20029;-82
2023/08/03 06:21:26;;;;;;;4.85;0.40;;;16.40;99.90;;;;;;4984284;28;20037;-83
2023/08/03 06:23:55;;;;;;;3.58;0.30;;;16.30;99.90;;;;;;4985833;28;20029;-83
2023/08/03 06:26:21;;;;;;;5.68;0.50;;;16.40;99.90;;;;;;5000519;28;20143;-85
2023/08/03 06:28:49;;;;;;;2.97;0.32;;;16.40;99.90;;;;;;5017175;28;20041;-82
2023/08/03 06:31:22;;;;;;;2.45;0.43;;;16.30;99.90;;;;;;5000390;28;20036;-83
2023/08/03 06:33:48;;;;;;;2.63;0.30;;;16.40;99.90;;;;;;5003119;28;20486;-83
2023/08/03 06:36:19;;;;;;;5.38;0.30;;;16.30;99.90;;;;;;5018489;28;20041;-85
2023/08/03 06:38:46;;;;;;;2.15;0.30;;;16.30;99.90;;;;;;5018374;28;20034;-83
2023/08/03 06:41:12;;;;;;;2.72;0.30;;;16.30;99.90;;;;;;5003166;28;20042;-86
2023/08/03 06:43:38;;;;;;;4.60;0.43;;;16.30;99.90;;;;;;5021553;28;20034;-84
2023/08/03 06:46:05;;;;;;;3.45;0.35;;;16.30;99.90;;;;;;5016276;28;20037;-83
2023/08/03 06:48:32;;;;;;;3.72;0.40;;;16.40;99.90;;;;;;4999683;28;20059;-81
2023/08/03 06:50:58;;;;;;;3.35;0.35;;;16.40;99.90;;;;;;5002745;28;20045;-87
2023/08/03 06:53:24;;;;;;;3.60;0.32;;;16.40;99.90;;;;;;5019161;28;20033;-84
2023/08/03 06:55:50;;;;;;;4.43;0.40;;;16.30;99.90;;;;;;5018502;28;20398;-83
2023/08/03 06:58:17;;;;;;;7.32;0.63;;;16.40;99.90;;;;;;5001201;28;20030;-82
2023/08/03 07:00:44;;;;;;;4.35;0.30;;;16.40;99.90;;;;;;5015417;28;20033;-82
2023/08/03 07:03:10;;;;;;;4.60;0.30;;;16.50;99.90;;;;;;4983044;28;20049;-84
2023/08/03 07:05:36;;;;;;;4.55;0.40;;;16.60;99.90;;;;;;5006318;28;20045;-84
2023/08/03 07:08:02;;;;;;;4.60;0.40;;;16.50;99.90;;;;;;5001554;28;20033;-84
2023/08/03 07:10:29;;;;;;;4.85;0.40;;;16.50;99.90;;;;;;5002103;28;20072;-84
2023/08/03 07:12:54;;;;;;;5.80;0.30;;;16.60;99.90;;;;;;5007030;28;20152;-83
2023/08/03 07:15:20;;;;;;;3.70;0.40;;;16.60;99.90;;;;;;5000827;28;20029;-84
2023/08/03 07:17:47;;;;;;;3.13;0.40;;;16.60;99.90;;;;;;5001479;28;20038;-84
2023/08/03 07:20:13;;;;;;;3.17;0.30;;;16.70;99.90;;;;;;5015824;28;20371;-81
2023/08/03 07:22:39;;;;;;;3.78;0.30;;;16.80;99.90;;;;;;4998573;28;20033;-82
2023/08/03 07:25:05;;;;;;;3.97;0.30;;;16.80;99.90;;;;;;5016425;28;20022;-82
2023/08/03 07:27:31;;;;;;;4.70;0.30;;;16.70;99.90;;;;;;5017601;28;20398;-82
2023/08/03 07:29:57;;;;;;;3.47;0.30;;;16.60;99.90;;;;;;5015766;28;20110;-83
2023/08/03 07:32:23;;;;;;;3.97;0.30;;;16.70;99.90;;;;;;4984471;28;20022;-85
2023/08/03 07:34:49;;;;;;;1.55;0.28;;;16.60;99.90;;;;;;5000795;28;20458;-84
2023/08/03 07:37:15;;;;;;;3.08;0.30;;;16.60;99.90;;;;;;4998617;28;20092;-84
2023/08/03 07:39:40;;;;;;;3.90;0.55;;;16.50;99.90;;;;;;5016651;28;20084;-84
2023/08/03 07:42:07;;;;;;;4.45;0.40;;;16.50;99.90;;;;;;4996680;28;20569;-84
2023/08/03 07:44:32;;;;;;;2.92;0.30;;;16.50;99.90;;;;;;5016685;28;20508;-84
2023/08/03 07:46:58;;;;;;;1.95;0.30;;;16.60;99.90;;;;;;5000550;28;20057;-85
2023/08/03 07:49:24;;;;;;;2.88;0.30;;;16.70;99.90;;;;;;5019647;28;20037;-82
2023/08/03 07:51:49;;;;;;;2.75;0.30;;;16.60;99.90;;;;;;5008709;28;20377;-86
2023/08/03 07:54:15;;;;;;;2.45;0.30;;;16.50;99.90;;;;;;5019178;28;20105;-84
2023/08/03 07:56:42;;;;;;;4.55;0.30;;;16.60;99.90;;;;;;4989218;28;20087;-85
2023/08/03 07:59:10;;;;;;;3.10;0.28;;;16.50;99.90;;;;;;5018128;28;20077;-84
2023/08/03 08:01:36;;;;;;;3.67;0.30;;;16.60;99.90;;;;;;4998755;28;20535;-85
2023/08/03 08:04:02;;;;;;;3.17;0.32;;;16.60;99.90;;;;;;5006738;28;20133;-85
2023/08/03 08:06:28;;;;;;;4.93;0.50;;;16.60;99.90;;;;;;5017108;28;20474;-86
2023/08/03 08:08:54;;;;;;;2.35;0.35;;;16.70;99.90;;;;;;5018986;28;20052;-84
2023/08/03 08:11:20;;;;;;;2.85;0.40;;;16.70;99.90;;;;;;5011303;28;20026;-86
2023/08/03 08:13:46;;;;;;;1.35;0.20;;;16.80;99.90;;;;;;5019406;28;20026;-82
2023/08/03 08:16:13;;;;;;;2.88;0.30;;;16.80;99.90;;;;;;5017014;28;20452;-85
2023/08/03 08:18:39;;;;;;;1.55;0.20;;;16.70;99.90;;;;;;5005853;28;20042;-87
2023/08/03 08:21:10;;;;;;;1.88;0.20;;;16.70;99.90;;;;;;4999497;28;20053;-87
2023/08/03 08:23:36;;;;;;;3.85;0.30;;;16.70;99.90;;;;;;4998481;28;20083;-87
2023/08/03 08:26:12;;;;;;;1.33;0.20;;;16.70;99.90;;;;;;5003002;28;20025;-87
2023/08/03 08:28:38;;;;;;;2.60;0.43;;;16.70;99.90;;;;;;5019270;28;20040;-86
2023/08/03 08:31:04;;;;;;;1.45;0.30;;;16.60;99.90;;;;;;5016216;28;20030;-87
2023/08/03 08:33:30;;;;;;;3.33;0.30;;;16.60;99.90;;;;;;5015668;28;20080;-85
2023/08/03 08:35:55;;;;;;;1.13;0.20;;;16.60;99.90;;;;;;5015460;28;20026;-86
2023/08/03 08:38:21;;;;;;;2.53;0.30;;;16.70;99.90;;;;;;5018052;28;20082;-84
2023/08/03 08:40:48;;;;;;;1.83;0.30;;;16.70;99.90;;;;;;4983155;28;20061;-81
2023/08/03 08:43:17;;;;;;;3.03;0.20;;;16.70;99.90;;;;;;5016054;28;20513;-84
2023/08/03 08:45:42;;;;;;;5.85;0.40;;;16.80;99.90;;;;;;4985143;28;20041;-83
2023/08/03 08:48:08;;;;;;;2.35;0.40;;;16.70;99.90;;;;;;4986532;28;20029;-86
2023/08/03 08:50:34;;;;;;;5.75;0.60;;;16.80;99.90;;;;;;4989432;28;20440;-86
2023/08/03 08:53:00;;;;;;;3.47;0.43;;;16.80;99.90;;;;;;5016416;28;20109;-87
2023/08/03 08:55:30;;;;;;;3.33;0.40;;;16.80;99.90;;;;;;4988209;28;20060;-83
2023/08/03 08:57:57;;;;;;;2.92;0.60;;;16.70;99.90;;;;;;4996639;28;20520;-85
2023/08/03 09:00:25;;;;;;;2.33;0.35;;;16.80;99.90;;;;;;5005873;28;20039;-84
2023/08/03 09:03:01;;;;;;;7.32;0.40;;;16.70;99.90;;;;;;5014628;28;20128;-85
2023/08/03 09:05:28;;;;;;;4.15;0.50;;;16.70;99.90;;;;;;5018551;28;20033;-85
2023/08/03 09:08:07;;;;;;;4.40;0.50;;;16.70;99.90;;;;;;4999547;28;20033;-82
2023/08/03 09:10:51;;;;;;;5.77;0.87;;;16.80;99.90;;;;;;5017876;28;20366;-85
2023/08/03 09:13:36;;;;;;;4.82;0.80;;;16.80;99.90;;;;;;4991222;28;20026;-85
2023/08/03 09:16:03;;;;;;;5.45;0.60;;;17.00;99.90;;;;;;5020932;28;20056;-85
2023/08/03 09:18:31;;;;;;;5.13;0.75;;;16.90;99.90;;;;;;4989169;28;20041;-82
2023/08/03 09:21:14;;;;;;;4.00;0.80;;;17.00;99.90;;;;;;5007851;28;20030;-83
2023/08/03 09:23:40;;;;;;;6.32;1.15;;;17.10;99.90;;;;;;5023782;28;20118;-87
2023/08/03 09:26:06;;;;;;;4.38;0.85;;;17.30;99.90;;;;;;5007071;28;20112;-85
2023/08/03 09:28:36;;;;;;;7.72;1.35;;;17.40;99.90;;;;;;5022973;28;20040;-83
2023/08/03 09:31:03;;;;;;;6.72;1.15;;;17.60;99.90;;;;;;5021341;28;20112;-85
2023/08/03 09:33:29;;;;;;;4.70;0.90;;;17.80;99.90;;;;;;5005442;28;20040;-81
2023/08/03 09:36:14;;;;;;;4.22;0.70;;;18.00;99.90;;;;;;5004587;28;20029;-85
2023/08/03 09:38:42;;;;;;;3.88;1.23;;;18.00;99.90;;;;;;5022143;28;20172;-84
2023/08/03 09:41:09;;;;;;;6.50;0.90;;;18.10;99.90;;;;;;5023874;28;20026;-83
2023/08/03 09:43:36;;;;;;;4.07;0.65;;;18.20;99.90;;;;;;5024728;28;20107;-85
2023/08/03 09:46:02;;;;;;;2.67;0.60;;;18.10;99.90;;;;;;4990024;28;20033;-85
2023/08/03 09:48:28;;;;;;;3.67;0.60;;;18.20;99.90;;;;;;5006963;28;20025;-84
2023/08/03 09:50:56;;;;;;;5.47;0.90;;;18.20;99.90;;;;;;5005157;28;20060;-84
2023/08/03 09:53:32;;;;;;;2.50;0.90;;;18.50;99.90;;;;;;5020576;28;20470;-84
2023/08/03 09:56:01;;;;;;;3.97;1.35;;;18.60;99.90;;;;;;5022393;28;20202;-84
2023/08/03 09:58:49;;;;;;;4.03;1.17;;;18.80;99.90;;;;;;5022170;28;20022;-82
2023/08/03 10:01:18;;;;;;;5.18;1.52;;;19.20;99.90;;;;;;5003071;28;20018;-83
2023/08/03 10:03:47;;;;;;;3.80;1.27;;;19.50;99.90;;;;;;5005756;28;20049;-83
2023/08/03 10:06:25;;;;;;;6.82;1.42;;;19.90;99.90;;;;;;4987686;28;20036;-83
2023/08/03 10:09:03;;;;;;;3.95;1.35;;;20.10;99.90;;;;;;5022121;28;20037;-87
2023/08/03 10:11:38;;;;;;;4.38;1.17;;;20.40;99.90;;;;;;5020919;28;20030;-85
2023/08/03 10:14:05;;;;;;;1.63;0.55;;;19.90;99.90;;;;;;5007302;28;20029;-86
2023/08/03 10:16:35;;;;;;;3.47;1.05;;;19.90;99.90;;;;;;5020860;28;20564;-84
2023/08/03 10:19:02;;;;;;;4.28;0.68;;;20.00;99.90;;;;;;5021255;28;20037;-83
2023/08/03 10:21:29;;;;;;;4.40;0.75;;;19.80;99.90;;;;;;5005801;28;20041;-84
2023/08/03 10:24:11;;;;;;;5.13;0.85;;;19.60;99.90;;;;;;5019533;28;20116;-85
2023/08/03 10:26:37;;;;;;;4.57;0.60;;;19.80;99.90;;;;;;5004265;28;20355;-83
2023/08/03 10:29:05;;;;;;;7.88;1.10;;;20.10;99.90;;;;;;5002917;28;20039;-84
2023/08/03 10:31:32;;;;;;;5.00;0.80;;;20.10;99.90;;;;;;4984194;28;20057;-85
2023/08/03 10:33:57;;;;;;;9.55;2.25;;;20.00;99.90;;;;;;5002762;28;20026;-86
2023/08/03 10:36:29;;;;;;;4.78;0.63;;;19.60;99.90;;;;;;5010539;28;20029;-84
2023/08/03 10:38:57;;;;;;;5.90;0.52;;;19.20;99.90;;;;;;5018544;28;20388;-87
2023/08/03 10:41:36;;;;;;;3.33;0.60;;;18.90;99.90;;;;;;5019149;28;20388;-85
2023/08/03 10:44:05;;;;;;;3.67;0.60;;;18.90;99.90;;;;;;4991878;28;20040;-86
2023/08/03 10:46:51;;;;;;;7.20;1.50;;;19.10;99.90;;;;;;5017595;28;20474;-82
2023/08/03 10:49:20;;;;;;;2.67;0.60;;;19.70;99.90;;;;;;4984765;28;20029;-83
2023/08/03 10:51:50;;;;;;;3.97;0.50;;;19.80;99.90;;;;;;4981863;28;20037;-85
2023/08/03 10:54:18;;;;;;;4.43;0.60;;;19.80;99.90;;;;;;5014867;28;20032;-84
2023/08/03 10:57:06;;;;;;;3.83;0.50;;;19.60;99.90;;;;;;4987167;28;20033;-84
2023/08/03 10:59:36;;;;;;;5.68;0.50;;;19.50;99.90;;;;;;5002089;28;20018;-85
2023/08/03 11:02:33;;;;;;;5.45;0.80;;;19.20;99.90;;;;;;5017160;28;20030;-87
2023/08/03 11:05:01;;;;;;;4.78;0.70;;;19.00;99.90;;;;;;4982099;28;20042;-89
2023/08/03 11:07:36;;;;;;;3.35;0.52;;;18.60;99.90;;;;;;4981979;28;20518;-87
2023/08/03 11:10:04;;;;;;;2.25;0.30;;;18.30;99.90;;;;;;4984326;28;20040;-82
2023/08/03 11:12:31;;;;;;;2.95;0.38;;;18.00;99.90;;;;;;5015993;28;20033;-84
2023/08/03 11:14:59;;;;;;;3.03;0.40;;;18.00;99.90;;;;;;5020659;28;20125;-83
2023/08/03 11:17:27;;;;;;;2.45;0.45;;;17.90;99.90;;;;;;5019623;28;20465;-83
2023/08/03 11:19:54;;;;;;;2.22;0.30;;;17.90;99.90;;;;;;4984834;28;20739;-86
2023/08/03 11:22:23;;;;;;;0.68;0.20;;;17.80;99.90;;;;;;5019049;28;20061;-86
2023/08/03 11:24:51;;;;;;;1.67;0.20;;;17.70;99.90;;;;;;5000885;28;20045;-82
2023/08/03 11:27:18;;;;;;;0.93;0.30;;;17.70;99.90;;;;;;4982203;28;20437;-85
2023/08/03 11:29:44;;;;;;;2.55;0.30;;;17.70;99.90;;;;;;4980463;28;20045;-82
2023/08/03 11:32:11;;;;;;;2.40;0.30;;;17.70;99.90;;;;;;4990972;28;20498;-80
2023/08/03 11:34:40;;;;;;;3.30;0.40;;;17.70;99.90;;;;;;5015437;28;20244;-81
2023/08/03 11:37:10;;;;;;;2.50;0.40;;;17.70;99.90;;;;;;5018643;28;20021;-83
2023/08/03 11:39:36;;;;;;;3.08;0.40;;;17.90;99.90;;;;;;5006948;28;20469;-84
2023/08/03 11:42:02;;;;;;;3.10;0.40;;;18.20;99.90;;;;;;4995562;28;20083;-83
2023/08/03 11:44:28;;;;;;;2.78;0.52;;;18.30;99.90;;;;;;5013217;28;20037;-82
2023/08/03 11:47:07;;;;;;;2.58;0.40;;;18.30;99.90;;;;;;4996843;28;20072;-87
2023/08/03 11:49:34;;;;;;;3.03;0.40;;;18.10;99.90;;;;;;5014913;28;20182;-86
2023/08/03 11:52:00;;;;;;;3.25;0.65;;;18.00;99.90;;;;;;5000860;28;20124;-86
2023/08/03 11:54:29;;;;;;;4.75;0.60;;;18.00;99.90;;;;;;5017646;28;20022;-87
2023/08/03 11:59:44;;;;;;;2.20;0.50;;;17.90;99.90;;;;;;5019472;28;20034;-85
2023/08/03 12:02:10;;;;;;;2.08;0.40;;;18.10;99.90;;;;;;5017226;28;20032;-83
2023/08/03 12:04:36;;;;;;;5.30;0.77;;;18.30;99.90;;;;;;4997774;28;20049;-85
2023/08/03 12:07:02;;;;;;;2.50;0.60;;;18.40;99.90;;;;;;5013038;28;20056;-86
2023/08/03 12:09:29;;;;;;;3.17;0.60;;;18.50;99.90;;;;;;5016678;28;20030;-83
2023/08/03 12:12:05;;;;;;;2.47;0.45;;;18.60;99.90;;;;;;5002080;28;20076;-84
2023/08/03 12:14:31;;;;;;;4.65;0.70;;;18.40;99.90;;;;;;5016053;28;20406;-85
2023/08/03 12:16:56;;;;;;;2.35;0.40;;;18.30;99.90;;;;;;4983852;28;20029;-86
2023/08/03 12:19:22;;;;;;;3.25;0.50;;;18.30;99.90;;;;;;4988195;28;20490;-85
2023/08/03 12:21:48;;;;;;;3.25;0.50;;;18.40;99.90;;;;;;4978654;28;20029;-85
2023/08/03 12:24:13;;;;;;;2.50;0.50;;;18.40;99.90;;;;;;4981651;28;20030;-82
2023/08/03 12:26:40;;;;;;;4.53;0.70;;;18.60;99.90;;;;;;5000872;28;20699;-85
2023/08/03 12:29:06;;;;;;;2.45;0.40;;;18.70;99.90;;;;;;4990174;28;20152;-85
2023/08/03 12:31:34;;;;;;;2.72;0.50;;;18.70;99.90;;;;;;4998858;28;20124;-84
2023/08/03 12:33:59;;;;;;;4.15;0.43;;;18.70;99.90;;;;;;4989647;28;20038;-84
2023/08/03 12:36:26;;;;;;;4.15;0.50;;;18.90;99.90;;;;;;5016913;28;20100;-83
2023/08/03 12:38:52;;;;;;;5.10;0.68;;;18.60;99.90;;;;;;4999246;28;20833;-84
2023/08/03 12:41:19;;;;;;;11.27;2.97;;;18.60;99.90;;;;;;5014182;28;20018;-83
2023/08/03 12:43:45;;;;;;;3.97;0.30;;;18.60;99.90;;;;;;4989309;28;20121;-83
2023/08/03 12:46:11;;;;;;;5.40;0.80;;;18.60;99.90;;;;;;4982824;28;22036;-84
2023/08/03 12:48:37;;;;;;;7.15;1.92;;;18.70;99.90;;;;;;5016899;28;20044;-83
2023/08/03 12:51:02;;;;;;;8.10;2.63;;;18.80;99.90;;;;;;5005724;28;20048;-86
2023/08/03 12:53:28;;;;;;;7.55;1.60;;;18.90;99.90;;;;;;5000474;28;20033;-85